Holbrook, AZ (86025)

6:18 AM MST on May 04, 2015 (GMT -0700)
Winslow-Lindbergh Regional | | Change Station
CLOSE
Current Station
Airport
Location: Winslow,
Elevation: 4882 ft
Nearby Weather Stations

Elev 4882 ft 35.03 °N, 110.72 °W | Updated 22 minutes ago

Overcast
Overcast
54 °F
Feels Like 54 °F
N
0
Wind Variable Wind from North

Today
High -- | Low -- °F
--% Chance of Precip.
Yesterday
High -- | Low -- °F
Precip. -- in
5:27 AM 7:08 PM
Full, 100% visible
Pressure 29.83 in
Visibility 10.0 miles
Clouds Mostly Cloudy 11000 ft
Dew Point 41 °F
Humidity 62%
Rainfall 0.00 in
Snow Depth Not available.
UV 0 out of 12
Pollen 5.50 out of 12
Air Quality Not available.
Flu Activity Local Activity
METAR KINW 041256Z AUTO 00000KT 10SM BKN110 12/05 A2999 RMK AO2 SLP099 T01220050

More Conditions Fewer Conditions

Pressure 29.83 in
Visibility 10.0 miles
Clouds Mostly Cloudy 11000 ft
Dew Point 41 °F
Humidity 62%
Rainfall 0.00 in
Snow Depth Not available.
UV 0 out of 12
Pollen 5.50 out of 12
Air Quality Not available.
Flu Activity Local Activity
METAR KINW 041256Z AUTO 00000KT 10SM BKN110 12/05 A2999 RMK AO2 SLP099 T01220050

More Conditions Fewer Conditions

Nepal has a long way to go to dig out and rebuild from a devastating earthquake. We have teamed up with several charities and organizations to make contributing to the relief effort as easy as possible.
How you can help: Portlight Strategies | Red Cross

10-Day Weather Forecast

Almanac

Astronomy

May. 04, 2015 Rise Set
Actual Time
Civil Twilight
Nautical Twilight
Astronomical Twilight
Moon
Length of Visible Light
Length of Day
Tomorrow will be .
, % of the Moon is Illuminated

Today's Extremes

State Highs State Lows

Community

WunderPhotos

Upload Photos

1,818,601 photos uploaded!

WunderBlogs® & News

Nearby

Air Quality

  Air Quality AQ Index Pollutant
Not available.

Snow Depth

Station Depth Elevation

Earthquake Activity

City Distance Mag. Time & Date
Minimum magnitude displayed is 2.5.

Coastal Water Temperatures

Place Temperature

Stations

Nearby Weather Stations

Station Location Temp. Windchill Dew Point Humidity Wind Precip. Elev Updated Type